createdAt,value
2022-11-06T00:03:17.252Z,14.47
2022-11-06T00:08:14.460Z,14.39
2022-11-06T00:13:12.416Z,14.34
2022-11-06T00:18:09.677Z,14.44
2022-11-06T00:23:06.641Z,14.49
2022-11-06T00:28:06.171Z,14.39
2022-11-06T00:33:05.703Z,14.29
2022-11-06T00:38:02.434Z,14.28
2022-11-06T00:42:59.097Z,14.18
2022-11-06T00:47:58.354Z,14.16
2022-11-06T00:52:55.582Z,13.92
2022-11-06T00:57:52.367Z,14.07
2022-11-06T01:02:49.098Z,14.05
2022-11-06T01:07:45.783Z,14.16
2022-11-06T01:12:43.041Z,14.34
2022-11-06T01:17:39.656Z,14.39
2022-11-06T01:22:36.470Z,14.32
2022-11-06T01:27:37.675Z,14.50
2022-11-06T01:32:35.464Z,14.26
2022-11-06T01:37:32.243Z,14.36
2022-11-06T01:42:28.888Z,13.67
2022-11-06T01:47:29.150Z,13.87
2022-11-06T01:52:27.092Z,13.68
2022-11-06T01:57:24.156Z,13.64
2022-11-06T02:02:20.896Z,13.35
2022-11-06T02:07:18.232Z,13.67
2022-11-06T02:12:23.469Z,13.88
2022-11-06T02:17:24.921Z,13.91
2022-11-06T02:22:36.707Z,14.01
2022-11-06T02:27:36.408Z,13.88
2022-11-06T02:32:37.316Z,13.96
2022-11-06T02:37:36.432Z,13.83
2022-11-06T02:42:36.067Z,13.76
2022-11-06T02:47:34.223Z,13.70
2022-11-06T02:52:32.619Z,13.72
2022-11-06T02:57:35.002Z,13.91
2022-11-06T03:02:34.307Z,14.03
2022-11-06T03:07:34.929Z,14.14
2022-11-06T03:12:33.280Z,14.16
2022-11-06T03:17:37.086Z,14.10
2022-11-06T03:22:39.060Z,13.84
2022-11-06T03:27:38.461Z,13.69
2022-11-06T03:32:39.454Z,13.95
2022-11-06T03:37:39.889Z,13.65
2022-11-06T03:42:37.256Z,13.71
2022-11-06T03:47:37.477Z,13.75
2022-11-06T03:52:37.605Z,13.65
2022-11-06T03:57:38.134Z,13.67
2022-11-06T04:02:37.479Z,13.52
2022-11-06T04:07:36.435Z,13.76
2022-11-06T04:12:53.740Z,13.81
2022-11-06T04:17:51.005Z,13.84
2022-11-06T04:22:55.710Z,13.85
2022-11-06T04:27:59.577Z,13.73
2022-11-06T04:33:07.313Z,14.11
2022-11-06T04:38:07.786Z,14.15
2022-11-06T04:43:07.784Z,14.36
2022-11-06T04:48:06.215Z,14.33
2022-11-06T04:53:03.963Z,14.21
2022-11-06T04:58:02.241Z,14.36
2022-11-06T05:03:01.962Z,14.31
2022-11-06T05:07:59.314Z,14.30
2022-11-06T05:12:57.755Z,14.37
2022-11-06T05:17:54.363Z,13.95
2022-11-06T05:23:00.399Z,14.37
2022-11-06T05:27:58.060Z,14.07
2022-11-06T05:32:55.085Z,13.87
2022-11-06T05:37:51.892Z,13.80
2022-11-06T05:42:48.671Z,14.19
2022-11-06T05:47:47.052Z,13.99
2022-11-06T05:52:43.742Z,14.23
2022-11-06T05:57:40.671Z,14.05
2022-11-06T06:02:39.343Z,14.03
2022-11-06T06:07:38.244Z,14.03
2022-11-06T06:12:35.004Z,13.93
2022-11-06T06:17:31.768Z,13.73
2022-11-06T06:22:28.520Z,14.17
2022-11-06T06:27:27.194Z,13.94
2022-11-06T06:32:23.983Z,13.93
2022-11-06T06:37:20.636Z,13.97
2022-11-06T06:42:17.455Z,13.99
2022-11-06T06:47:16.364Z,13.87
2022-11-06T06:52:13.124Z,13.80
2022-11-06T06:57:11.183Z,14.07
2022-11-06T07:02:09.273Z,13.99
2022-11-06T07:07:06.816Z,14.37
2022-11-06T07:12:03.930Z,14.72
2022-11-06T07:17:00.472Z,14.40
2022-11-06T07:21:57.069Z,14.62
2022-11-06T07:26:54.613Z,14.74
2022-11-06T07:31:51.722Z,15.04
2022-11-06T07:36:48.746Z,15.21
2022-11-06T07:41:45.387Z,15.28
2022-11-06T07:46:43.147Z,15.20
2022-11-06T07:51:42.152Z,15.21
2022-11-06T07:56:39.007Z,15.12
2022-11-06T08:01:35.949Z,15.30
2022-11-06T08:06:33.762Z,15.40
2022-11-06T08:11:30.681Z,15.16
2022-11-06T08:16:32.732Z,15.36
2022-11-06T08:21:29.379Z,15.49
2022-11-06T08:26:27.127Z,15.57
2022-11-06T08:31:24.205Z,15.93
2022-11-06T08:36:20.961Z,15.67
2022-11-06T08:41:17.804Z,15.88
2022-11-06T08:46:15.333Z,15.78
2022-11-06T08:51:12.147Z,15.86
2022-11-06T08:56:08.884Z,16.20
2022-11-06T09:01:08.302Z,16.27
2022-11-06T09:06:06.319Z,16.31
2022-11-06T09:11:06.843Z,16.62
2022-11-06T09:16:03.909Z,16.50
2022-11-06T09:21:00.664Z,16.55
2022-11-06T09:25:57.953Z,16.56
2022-11-06T09:30:57.035Z,16.77
2022-11-06T09:35:53.775Z,16.77
2022-11-06T09:40:52.495Z,16.87
2022-11-06T09:45:54.879Z,17.00
2022-11-06T09:50:52.929Z,17.20
2022-11-06T09:55:49.600Z,17.14
2022-11-06T10:00:47.008Z,17.33
2022-11-06T10:05:45.498Z,17.45
2022-11-06T10:10:45.320Z,17.84
2022-11-06T10:15:45.370Z,17.84
2022-11-06T10:20:49.644Z,18.04
2022-11-06T10:25:52.650Z,18.22
2022-11-06T10:30:53.146Z,18.36
2022-11-06T10:35:52.087Z,18.51
2022-11-06T10:40:53.250Z,18.62
2022-11-06T10:45:52.637Z,18.77
2022-11-06T10:50:58.528Z,18.80
2022-11-06T10:56:11.165Z,18.88
2022-11-06T11:01:12.331Z,18.89
2022-11-06T11:06:09.204Z,19.01
2022-11-06T11:11:15.290Z,19.04
2022-11-06T11:16:14.058Z,19.20
2022-11-06T11:21:25.539Z,19.31
2022-11-06T11:26:25.302Z,19.60
2022-11-06T11:31:28.293Z,19.59
2022-11-06T11:36:25.282Z,19.90
2022-11-06T11:41:23.825Z,19.73
2022-11-06T11:46:20.655Z,19.68
2022-11-06T11:51:34.689Z,19.65
2022-11-06T11:56:58.182Z,19.62
2022-11-06T12:01:49.579Z,19.76
2022-11-06T12:06:50.102Z,19.69
2022-11-06T12:11:47.789Z,19.67
2022-11-06T12:16:47.852Z,20.00
2022-11-06T12:21:46.042Z,19.84
2022-11-06T12:26:45.317Z,19.95
2022-11-06T12:31:47.350Z,20.21
2022-11-06T12:36:46.179Z,20.32
2022-11-06T12:41:44.971Z,20.32
2022-11-06T12:46:48.307Z,20.46
2022-11-06T12:51:51.111Z,20.79
2022-11-06T12:56:53.691Z,20.72
2022-11-06T13:01:56.625Z,20.69
2022-11-06T13:07:11.170Z,20.75
2022-11-06T13:12:12.807Z,20.87
2022-11-06T13:17:12.360Z,20.78
2022-11-06T13:22:15.616Z,20.82
2022-11-06T13:27:17.463Z,20.82
2022-11-06T13:32:18.107Z,20.83
2022-11-06T13:37:17.502Z,20.85
2022-11-06T13:42:19.402Z,20.98
2022-11-06T13:47:22.747Z,20.90
2022-11-06T13:52:25.307Z,20.91
2022-11-06T13:57:33.808Z,20.85
2022-11-06T14:02:49.170Z,20.78
2022-11-06T14:07:46.703Z,20.77
2022-11-06T14:12:46.205Z,20.79
2022-11-06T14:17:53.720Z,20.75
2022-11-06T14:22:50.433Z,20.55
2022-11-06T14:28:07.923Z,20.69
2022-11-06T14:33:09.429Z,20.72
2022-11-06T14:38:16.864Z,20.61
2022-11-06T14:43:19.189Z,20.55
2022-11-06T14:48:27.350Z,20.57
2022-11-06T14:53:25.946Z,20.48
2022-11-06T14:58:24.863Z,20.16
2022-11-06T15:03:28.130Z,19.79
2022-11-06T15:08:43.436Z,19.75
2022-11-06T15:13:40.256Z,19.66
2022-11-06T15:18:38.430Z,19.34
2022-11-06T15:23:40.597Z,19.27
2022-11-06T15:28:43.131Z,19.10
2022-11-06T15:33:50.464Z,18.95
2022-11-06T15:38:51.081Z,18.79
2022-11-06T15:43:48.989Z,18.70
2022-11-06T15:48:46.445Z,18.51
2022-11-06T15:53:43.002Z,18.44
2022-11-06T15:58:39.623Z,18.32
2022-11-06T16:03:44.089Z,18.41
2022-11-06T16:08:41.768Z,18.30
2022-11-06T16:13:38.507Z,18.23
2022-11-06T16:18:39.936Z,18.16
2022-11-06T16:23:39.429Z,18.19
2022-11-06T16:28:45.074Z,17.87
2022-11-06T16:33:59.391Z,18.04
2022-11-06T16:39:17.305Z,18.21
2022-11-06T16:44:29.637Z,17.82
2022-11-06T16:49:32.388Z,17.98
2022-11-06T16:54:30.803Z,18.29
2022-11-06T16:59:28.223Z,18.49
2022-11-06T17:04:29.183Z,18.46
2022-11-06T17:09:30.035Z,18.52
2022-11-06T17:14:27.196Z,18.61
2022-11-06T17:19:26.835Z,18.56
2022-11-06T17:24:39.045Z,18.50
2022-11-06T17:29:36.496Z,18.61
2022-11-06T17:34:34.205Z,18.62
2022-11-06T17:39:31.268Z,18.71
2022-11-06T17:44:30.022Z,18.80
2022-11-06T17:49:26.678Z,18.77
2022-11-06T17:54:27.591Z,18.79
2022-11-06T17:59:24.486Z,18.76
2022-11-06T18:04:22.570Z,18.65
2022-11-06T18:09:19.900Z,18.75
2022-11-06T18:14:19.474Z,18.73
2022-11-06T18:19:17.347Z,18.73
2022-11-06T18:24:13.953Z,18.72
2022-11-06T18:29:12.945Z,18.77
2022-11-06T18:34:16.672Z,18.49
2022-11-06T18:39:16.466Z,18.55
2022-11-06T18:44:14.619Z,18.55
2022-11-06T18:49:15.178Z,18.51
2022-11-06T18:54:12.596Z,18.51
2022-11-06T18:59:13.563Z,18.50
2022-11-06T19:04:10.475Z,18.48
2022-11-06T19:09:08.276Z,18.42
2022-11-06T19:14:05.186Z,18.60
2022-11-06T19:24:05.614Z,18.30
2022-11-06T19:29:07.642Z,18.22
2022-11-06T19:34:07.125Z,18.28
2022-11-06T19:39:04.095Z,18.22
2022-11-06T19:44:00.836Z,18.20
2022-11-06T19:49:00.911Z,18.00
2022-11-06T19:54:01.051Z,17.79
2022-11-06T19:59:01.724Z,17.50
2022-11-06T20:04:00.744Z,17.80
2022-11-06T20:08:57.527Z,17.55
2022-11-06T20:13:54.301Z,17.35
2022-11-06T20:18:53.738Z,17.17
2022-11-06T20:23:54.412Z,17.18
2022-11-06T20:28:51.030Z,17.32
2022-11-06T20:33:51.066Z,17.14
2022-11-06T20:38:47.920Z,17.22
2022-11-06T20:43:55.345Z,16.96
2022-11-06T20:48:54.122Z,17.38
2022-11-06T20:53:53.968Z,17.11
2022-11-06T20:58:53.091Z,16.99
2022-11-06T21:03:50.540Z,17.26
2022-11-06T21:08:47.889Z,17.12
2022-11-06T21:13:51.056Z,17.02
2022-11-06T21:18:49.660Z,17.19
2022-11-06T21:23:49.691Z,16.83
2022-11-06T21:28:47.733Z,17.21
2022-11-06T21:33:48.231Z,16.74
2022-11-06T21:38:49.307Z,16.72
2022-11-06T21:43:47.459Z,17.02
2022-11-06T21:48:48.416Z,16.82
2022-11-06T21:54:08.814Z,16.88
2022-11-06T21:59:06.186Z,16.76
2022-11-06T22:04:09.046Z,16.81
2022-11-06T22:09:13.765Z,16.54
2022-11-06T22:14:14.532Z,16.84
2022-11-06T22:19:14.793Z,16.47
2022-11-06T22:24:14.970Z,16.34
2022-11-06T22:29:15.096Z,16.52
2022-11-06T22:34:13.798Z,16.43
2022-11-06T22:39:10.877Z,16.47
2022-11-06T22:44:09.505Z,16.48
2022-11-06T22:49:09.226Z,16.27
2022-11-06T22:54:09.065Z,16.33
2022-11-06T22:59:07.842Z,16.53
2022-11-06T23:04:15.208Z,16.43
2022-11-06T23:09:14.499Z,16.21
2022-11-06T23:14:11.198Z,16.23
2022-11-06T23:19:09.774Z,16.45
2022-11-06T23:24:10.241Z,16.31
2022-11-06T23:29:08.380Z,16.53
2022-11-06T23:34:05.593Z,16.23
2022-11-06T23:39:02.350Z,15.89
2022-11-06T23:44:04.256Z,15.71
2022-11-06T23:49:00.899Z,15.86
2022-11-06T23:53:57.841Z,16.15
2022-11-06T23:58:54.525Z,16.19
